Time;durP1;ratioP1;P1;durP2;ratioP2;P2;SDS_P1;SDS_P2;PMS_P1;PMS_P2;Temp;Humidity;BMP_temperature;BMP_pressure;BME280_temperature;BME280_humidity;BME280_pressure;Samples;Min_cycle;Max_cycle;Signal;HPM_P1;HPM_P2
2021/03/02 00:00:14;;;;;;;316.48;53.83;;;;;;;15.01;40.92;102810.25;5034396;28;20029;-72
2021/03/02 00:02:42;;;;;;;336.38;54.28;;;;;;;14.95;40.71;102809.47;5034475;28;20029;-72
2021/03/02 00:05:11;;;;;;;348.10;48.25;;;;;;;14.92;40.58;102816.38;5034381;28;20403;-73
2021/03/02 00:07:37;;;;;;;466.90;61.35;;;;;;;14.84;40.74;102819.78;5034428;28;20029;-73
2021/03/02 00:10:10;;;;;;;278.02;47.78;;;;;;;14.78;40.71;102811.88;5034328;28;20025;-73
2021/03/02 00:12:37;;;;;;;257.00;42.92;;;;;;;14.85;40.74;102810.41;5034339;28;20029;-73
2021/03/02 00:15:05;;;;;;;219.15;40.28;;;;;;;14.83;40.62;102809.88;5032870;28;20051;-73
2021/03/02 00:17:35;;;;;;;310.40;54.45;;;;;;;14.84;40.48;102814.28;5032929;28;20032;-73
2021/03/02 00:20:09;;;;;;;240.52;46.45;;;;;;;14.81;40.37;102816.78;5034198;28;20075;-72
2021/03/02 00:22:52;;;;;;;166.60;34.35;;;;;;;14.78;40.25;102812.69;5034105;28;20449;-73
2021/03/02 00:25:18;;;;;;;123.13;31.52;;;;;;;14.73;40.45;102809.16;5034129;28;20116;-73
2021/03/02 00:27:45;;;;;;;200.07;36.30;;;;;;;14.74;40.09;102817.16;5032612;28;20033;-73
2021/03/02 00:30:14;;;;;;;177.38;35.50;;;;;;;14.75;40.32;102813.28;5033938;28;20026;-73
2021/03/02 00:32:40;;;;;;;268.27;40.85;;;;;;;14.65;40.41;102813.38;5032599;28;20535;-73
2021/03/02 00:35:06;;;;;;;201.98;28.75;;;;;;;14.61;40.62;102809.56;5032574;28;20132;-73
2021/03/02 00:37:32;;;;;;;191.77;32.22;;;;;;;14.60;40.46;102817.00;5033385;28;20546;-74
2021/03/02 00:39:57;;;;;;;190.35;31.48;;;;;;;14.59;40.49;102812.63;5032814;28;20041;-76
2021/03/02 00:42:23;;;;;;;295.65;36.08;;;;;;;14.59;40.52;102814.53;5033599;28;20044;-72
2021/03/02 00:44:49;;;;;;;229.25;32.38;;;;;;;14.58;40.55;102812.88;5031610;28;20029;-72
2021/03/02 00:47:14;;;;;;;279.38;34.30;;;;;;;14.58;40.47;102818.38;5031805;28;20112;-76
2021/03/02 00:49:40;;;;;;;222.23;35.33;;;;;;;14.59;40.37;102820.03;5033252;28;20466;-72
2021/03/02 00:52:06;;;;;;;238.38;32.60;;;;;;;14.51;40.45;102829.75;5033483;28;20101;-72
2021/03/02 00:54:31;;;;;;;246.80;34.08;;;;;;;14.56;40.44;102823.34;5032183;28;20041;-72
2021/03/02 00:56:57;;;;;;;372.48;47.67;;;;;;;14.52;40.50;102830.56;5033533;28;20029;-72
2021/03/02 00:59:23;;;;;;;280.17;37.67;;;;;;;14.48;40.40;102816.56;5033414;28;20091;-74
2021/03/02 01:01:48;;;;;;;197.85;33.13;;;;;;;14.51;40.43;102824.25;5033091;28;20103;-76
2021/03/02 01:04:14;;;;;;;260.77;35.10;;;;;;;14.52;40.41;102822.31;5032943;28;20041;-73
2021/03/02 01:06:39;;;;;;;229.13;32.15;;;;;;;14.41;40.64;102821.53;5030878;28;20025;-73
2021/03/02 01:09:09;;;;;;;299.00;36.45;;;;;;;14.33;40.57;102822.97;5033229;28;20034;-73
2021/03/02 01:11:34;;;;;;;324.20;37.92;;;;;;;14.28;40.67;102822.19;5033254;28;20483;-77
2021/03/02 01:14:00;;;;;;;278.33;35.50;;;;;;;14.16;40.72;102828.06;5033058;28;20029;-73
2021/03/02 01:16:26;;;;;;;225.00;34.08;;;;;;;14.11;40.83;102825.34;5033079;28;20029;-78
2021/03/02 01:18:51;;;;;;;194.80;37.40;;;;;;;14.13;40.70;102829.47;5033110;28;20024;-73
2021/03/02 01:21:17;;;;;;;127.80;26.73;;;;;;;14.10;40.90;102829.22;5033011;28;20064;-73
2021/03/02 01:23:43;;;;;;;156.23;26.15;;;;;;;14.05;40.65;102826.50;5033076;28;20044;-75
2021/03/02 01:26:08;;;;;;;135.10;30.70;;;;;;;13.97;40.67;102827.91;5030427;28;20025;-73
2021/03/02 01:28:34;;;;;;;53.70;23.02;;;;;;;13.95;40.71;102832.06;5031567;28;20028;-73
2021/03/02 01:31:00;;;;;;;51.85;22.27;;;;;;;13.94;40.67;102827.69;5032283;28;20021;-74
2021/03/02 01:33:25;;;;;;;85.15;23.77;;;;;;;13.87;40.70;102826.06;5032843;28;20025;-73
2021/03/02 01:35:51;;;;;;;85.65;23.30;;;;;;;13.85;40.58;102816.47;5033072;28;20028;-73
2021/03/02 01:38:17;;;;;;;73.88;23.48;;;;;;;13.83;40.62;102822.25;5032614;28;20523;-73
2021/03/02 01:40:43;;;;;;;82.80;25.42;;;;;;;13.81;40.56;102816.22;5032732;28;20525;-73
2021/03/02 01:43:08;;;;;;;89.13;22.75;;;;;;;13.79;40.69;102818.41;5032771;28;20113;-78
2021/03/02 01:45:36;;;;;;;151.02;27.45;;;;;;;13.72;40.66;102819.84;5032676;28;20033;-73
2021/03/02 01:48:02;;;;;;;70.07;22.08;;;;;;;13.66;40.45;102821.78;5032547;28;20033;-72
2021/03/02 01:50:27;;;;;;;57.08;22.95;;;;;;;13.67;40.40;102820.69;5031236;28;20396;-72
2021/03/02 01:52:53;;;;;;;31.23;19.90;;;;;;;13.66;40.50;102827.28;5031304;28;20029;-75
2021/03/02 01:55:18;;;;;;;56.42;20.70;;;;;;;13.66;40.38;102823.72;5032524;28;20036;-73
2021/03/02 01:57:45;;;;;;;77.70;22.45;;;;;;;13.61;40.36;102827.34;5032366;28;20026;-72
2021/03/02 02:00:21;;;;;;;73.80;22.60;;;;;;;13.59;40.21;102827.59;5032190;28;20021;-73
2021/03/02 02:03:25;;;;;;;90.93;22.20;;;;;;;13.55;40.33;102828.47;5032178;28;20022;-73
2021/03/02 02:06:00;;;;;;;93.95;24.33;;;;;;;13.57;39.97;102824.31;5031529;28;20029;-73
2021/03/02 02:09:19;;;;;;;87.47;21.98;;;;;;;13.49;40.10;102824.09;5031150;28;20446;-72
2021/03/02 02:11:54;;;;;;;163.45;25.13;;;;;;;13.54;40.01;102829.56;5010430;28;20109;-73
2021/03/02 02:14:45;;;;;;;117.78;23.13;;;;;;;13.54;40.04;102824.06;5032013;28;20492;-73
2021/03/02 02:17:40;;;;;;;151.70;24.73;;;;;;;13.50;39.60;102820.22;5032461;28;20032;-74
2021/03/02 02:20:08;;;;;;;90.47;22.17;;;;;;;13.48;40.02;102812.28;5032399;28;20032;-73
2021/03/02 02:22:46;;;;;;;91.75;24.15;;;;;;;13.43;39.81;102814.22;5030991;28;20056;-73
2021/03/02 02:25:28;;;;;;;146.13;30.67;;;;;;;13.40;39.71;102812.06;5032257;28;20113;-73
2021/03/02 02:27:57;;;;;;;80.50;22.80;;;;;;;13.41;39.79;102809.00;5032242;28;20022;-76
2021/03/02 02:30:25;;;;;;;100.68;23.95;;;;;;;13.40;39.97;102809.31;5032070;28;20030;-74
2021/03/02 02:32:52;;;;;;;78.72;22.77;;;;;;;13.35;39.95;102812.06;5032106;28;20057;-73
2021/03/02 02:35:21;;;;;;;83.22;22.27;;;;;;;13.33;39.82;102804.94;5030467;28;20083;-73
2021/03/02 02:37:48;;;;;;;75.60;22.55;;;;;;;13.31;39.83;102804.41;5031875;28;20079;-74
2021/03/02 02:40:16;;;;;;;68.32;21.15;;;;;;;13.29;39.89;102809.34;5032152;28;20068;-73
2021/03/02 02:42:45;;;;;;;39.35;20.20;;;;;;;13.28;39.82;102802.19;5032133;28;20096;-78
2021/03/02 02:45:12;;;;;;;66.50;21.20;;;;;;;13.24;39.77;102806.63;5032123;28;20044;-73
2021/03/02 02:47:39;;;;;;;64.70;21.02;;;;;;;13.08;39.86;102805.00;5032044;28;20544;-73
2021/03/02 02:50:07;;;;;;;38.25;19.38;;;;;;;13.04;39.93;102803.91;5030769;28;20546;-73
2021/03/02 02:52:33;;;;;;;58.03;20.80;;;;;;;12.99;40.11;102799.25;5032316;28;20396;-73
2021/03/02 02:54:59;;;;;;;63.20;20.90;;;;;;;13.02;40.00;102806.13;5031899;28;20395;-73
2021/03/02 02:57:28;;;;;;;39.13;20.40;;;;;;;13.04;40.04;102793.75;5030641;28;20026;-73
2021/03/02 02:59:55;;;;;;;31.67;20.70;;;;;;;13.11;40.20;102801.69;5031799;28;20547;-73
2021/03/02 03:02:25;;;;;;;52.07;23.17;;;;;;;13.21;39.95;102801.69;5031881;28;20468;-73
2021/03/02 03:04:58;;;;;;;40.47;22.17;;;;;;;13.30;39.91;102794.53;5032882;28;20487;-73
2021/03/02 03:07:33;;;;;;;45.47;22.55;;;;;;;13.39;39.59;102802.19;5051752;28;20102;-73
2021/03/02 03:10:02;;;;;;;44.83;24.57;;;;;;;13.47;39.58;102793.34;5055527;28;20029;-73
2021/03/02 03:12:29;;;;;;;36.70;22.70;;;;;;;13.55;39.78;102795.50;5055742;28;20418;-74
2021/03/02 03:15:01;;;;;;;34.87;22.57;;;;;;;13.64;39.81;102799.28;5055403;28;20040;-73
2021/03/02 03:17:32;;;;;;;34.70;23.00;;;;;;;13.65;39.43;102794.59;5055263;28;20021;-74
2021/03/02 03:19:59;;;;;;;30.77;22.27;;;;;;;13.77;39.72;102779.44;5055349;28;20028;-79
2021/03/02 03:22:27;;;;;;;30.50;21.30;;;;;;;13.62;40.17;102786.94;5053972;28;20601;-73
2021/03/02 03:24:53;;;;;;;30.02;22.67;;;;;;;13.74;40.02;102785.47;5055257;28;20036;-73
2021/03/02 03:27:20;;;;;;;29.38;21.67;;;;;;;13.89;39.64;102785.38;5055300;28;20471;-78
2021/03/02 03:29:47;;;;;;;27.55;21.15;;;;;;;13.97;39.79;102781.19;5055112;28;20100;-73
2021/03/02 03:32:15;;;;;;;28.25;20.58;;;;;;;14.00;39.73;102782.56;5054517;28;20563;-74
2021/03/02 03:34:44;;;;;;;26.75;20.42;;;;;;;14.04;40.06;102775.38;5054726;28;20117;-73
2021/03/02 03:37:10;;;;;;;27.25;20.80;;;;;;;13.99;40.29;102783.69;5053776;28;20101;-73
2021/03/02 03:39:35;;;;;;;27.70;19.20;;;;;;;14.17;39.87;102782.97;5054749;28;20490;-73
2021/03/02 03:42:01;;;;;;;27.67;19.52;;;;;;;14.19;39.89;102779.94;5054889;28;20036;-75
2021/03/02 03:44:27;;;;;;;27.63;20.08;;;;;;;14.25;39.99;102782.34;5054235;28;20475;-75
2021/03/02 03:46:53;;;;;;;32.58;20.25;;;;;;;14.32;39.96;102782.03;5054729;28;20064;-76
2021/03/02 03:49:19;;;;;;;25.27;19.45;;;;;;;14.41;39.92;102783.03;5054715;28;20080;-73
2021/03/02 03:51:45;;;;;;;27.98;19.17;;;;;;;14.48;39.87;102789.03;5054663;28;20391;-73
2021/03/02 03:54:13;;;;;;;32.00;21.50;;;;;;;14.42;40.02;102785.47;5054558;28;20063;-79
2021/03/02 03:56:41;;;;;;;29.50;20.75;;;;;;;14.33;40.35;102781.72;5054336;28;20052;-74
2021/03/02 03:59:07;;;;;;;32.00;19.75;;;;;;;14.40;40.17;102787.72;5053441;28;20032;-73
2021/03/02 04:01:33;;;;;;;30.77;20.48;;;;;;;14.46;40.18;102787.72;5054511;28;20029;-73
2021/03/02 04:04:00;;;;;;;31.08;21.35;;;;;;;14.45;40.18;102786.84;5054484;28;20087;-73
2021/03/02 04:06:26;;;;;;;33.33;21.77;;;;;;;14.51;40.44;102790.38;5054435;28;20029;-74
2021/03/02 04:08:52;;;;;;;29.98;20.42;;;;;;;14.54;40.24;102795.31;5053445;28;20537;-73
2021/03/02 04:11:18;;;;;;;34.35;22.85;;;;;;;14.55;40.18;102794.22;5054130;28;20033;-76
2021/03/02 04:13:44;;;;;;;32.05;23.77;;;;;;;14.60;40.45;102783.16;5053888;28;20033;-73
2021/03/02 04:16:09;;;;;;;34.60;23.02;;;;;;;14.65;40.05;102783.91;5054272;28;20032;-74
2021/03/02 04:18:36;;;;;;;29.52;21.50;;;;;;;14.68;40.44;102782.53;5052985;28;20646;-73
2021/03/02 04:21:02;;;;;;;35.92;22.50;;;;;;;14.68;40.65;102779.78;5053229;28;20459;-73
2021/03/02 04:23:28;;;;;;;34.45;22.92;;;;;;;14.66;40.67;102777.31;5054065;28;20056;-73
2021/03/02 04:25:53;;;;;;;28.95;21.75;;;;;;;14.73;40.51;102779.72;5054302;28;20199;-73
2021/03/02 04:28:19;;;;;;;31.10;22.10;;;;;;;14.82;40.43;102785.41;5053518;28;20095;-73
2021/03/02 04:30:45;;;;;;;28.35;20.88;;;;;;;14.82;40.50;102774.41;5053680;28;20025;-73
2021/03/02 04:33:10;;;;;;;35.30;23.15;;;;;;;14.76;40.86;102783.81;5053778;28;20025;-73
2021/03/02 04:35:36;;;;;;;30.85;21.75;;;;;;;14.89;40.57;102783.13;5053652;28;20037;-73
2021/03/02 04:38:02;;;;;;;29.77;20.80;;;;;;;14.94;40.47;102783.06;5053717;28;20122;-73
2021/03/02 04:40:28;;;;;;;30.98;21.40;;;;;;;14.92;40.26;102785.28;5053523;28;20631;-73
2021/03/02 04:42:54;;;;;;;29.10;21.63;;;;;;;14.96;40.81;102778.91;5053661;28;20046;-73
2021/03/02 04:45:20;;;;;;;35.10;21.48;;;;;;;14.98;40.66;102778.63;5053700;28;20020;-73
2021/03/02 04:47:47;;;;;;;28.75;21.10;;;;;;;15.03;40.63;102769.47;5053586;28;20033;-73
2021/03/02 04:50:16;;;;;;;30.33;21.48;;;;;;;15.05;40.42;102781.03;5053475;28;20393;-73
2021/03/02 04:52:42;;;;;;;31.60;23.07;;;;;;;15.09;40.55;102780.13;5053479;28;20104;-73
2021/03/02 04:55:08;;;;;;;35.28;23.42;;;;;;;14.98;40.88;102775.88;5053019;28;20376;-74
2021/03/02 04:57:34;;;;;;;32.08;21.73;;;;;;;15.02;40.77;102765.06;5053326;28;20100;-74
2021/03/02 04:59:59;;;;;;;34.90;25.10;;;;;;;14.97;40.70;102774.22;5052401;28;20104;-73
2021/03/02 05:02:25;;;;;;;31.90;23.85;;;;;;;15.02;40.75;102767.81;5053348;28;20035;-73
2021/03/02 05:04:51;;;;;;;36.17;23.90;;;;;;;15.03;40.83;102767.53;5053160;28;20029;-73
2021/03/02 05:07:16;;;;;;;39.20;24.13;;;;;;;14.99;40.72;102764.56;5053243;28;20029;-73
2021/03/02 05:09:42;;;;;;;41.50;25.80;;;;;;;14.95;40.71;102771.75;5053305;28;20578;-73
2021/03/02 05:12:08;;;;;;;37.33;25.38;;;;;;;14.94;40.78;102767.34;5053008;28;20035;-75
2021/03/02 05:14:33;;;;;;;35.53;23.95;;;;;;;14.95;40.71;102769.00;5052856;28;20421;-74
2021/03/02 05:16:59;;;;;;;39.90;26.73;;;;;;;14.96;40.79;102770.66;5052064;28;20071;-73
2021/03/02 05:19:25;;;;;;;40.80;25.63;;;;;;;15.02;40.65;102773.34;5052812;28;20505;-74
2021/03/02 05:21:50;;;;;;;39.05;26.30;;;;;;;14.99;40.80;102780.25;5053036;28;20071;-73
2021/03/02 05:24:16;;;;;;;41.47;25.77;;;;;;;15.01;40.80;102780.78;5052932;28;20112;-73
2021/03/02 05:26:42;;;;;;;42.22;26.70;;;;;;;14.99;40.66;102775.56;5052894;28;20678;-78
2021/03/02 05:29:07;;;;;;;40.53;26.88;;;;;;;14.98;40.90;102778.63;5052923;28;20064;-79
2021/03/02 05:31:33;;;;;;;39.75;25.63;;;;;;;15.05;40.79;102778.28;5052497;28;20048;-73
2021/03/02 05:33:58;;;;;;;39.05;25.92;;;;;;;14.95;41.07;102782.75;5052682;28;20036;-73
2021/03/02 05:36:24;;;;;;;41.50;26.48;;;;;;;14.97;41.13;102783.31;5052730;28;20422;-73
2021/03/02 05:38:50;;;;;;;52.25;30.63;;;;;;;14.94;40.83;102781.13;5052439;28;20080;-73
2021/03/02 05:41:17;;;;;;;41.05;24.63;;;;;;;15.06;40.99;102788.16;5052127;28;20113;-73
2021/03/02 05:43:43;;;;;;;44.45;27.15;;;;;;;14.98;41.23;102790.44;5052489;28;20033;-75
2021/03/02 05:46:10;;;;;;;50.78;28.25;;;;;;;15.15;40.74;102791.91;5052545;28;20108;-73
2021/03/02 05:48:40;;;;;;;48.42;26.90;;;;;;;15.12;40.79;102789.75;5052942;28;20032;-78
2021/03/02 05:51:06;;;;;;;47.85;28.70;;;;;;;15.11;41.09;102788.91;5052421;28;20036;-74
2021/03/02 05:53:32;;;;;;;45.33;25.92;;;;;;;15.21;40.73;102788.78;5052312;28;20052;-73
2021/03/02 05:55:58;;;;;;;49.75;28.23;;;;;;;15.17;40.86;102792.41;5052451;28;20036;-73
2021/03/02 05:58:24;;;;;;;52.15;30.20;;;;;;;15.20;40.86;102789.09;5052458;28;20025;-72
2021/03/02 06:00:50;;;;;;;59.40;30.63;;;;;;;15.24;40.72;102792.88;5052475;28;20062;-79
2021/03/02 06:03:15;;;;;;;52.00;28.73;;;;;;;15.12;41.07;102785.06;5051568;28;20114;-73
2021/03/02 06:05:41;;;;;;;58.80;29.38;;;;;;;15.12;41.21;102784.25;5052283;28;20029;-72
2021/03/02 06:08:08;;;;;;;54.90;28.05;;;;;;;15.22;40.95;102784.94;5052137;28;20033;-73
2021/03/02 06:10:34;;;;;;;51.58;30.02;;;;;;;15.25;40.69;102791.75;5052200;28;20463;-73
2021/03/02 06:13:00;;;;;;;56.78;29.40;;;;;;;15.15;41.28;102786.41;5052226;28;20106;-75
2021/03/02 06:15:28;;;;;;;48.15;29.15;;;;;;;15.20;41.22;102786.34;5052216;28;20446;-73
2021/03/02 06:18:12;;;;;;;51.50;29.30;;;;;;;15.12;41.38;102785.06;5052133;28;20485;-73
2021/03/02 06:20:47;;;;;;;57.28;29.85;;;;;;;15.23;41.28;102785.75;5052150;28;20025;-73
2021/03/02 06:23:20;;;;;;;53.38;28.95;;;;;;;15.27;41.19;102789.56;5051870;28;20476;-73
2021/03/02 06:25:47;;;;;;;62.85;32.78;;;;;;;15.30;41.25;102791.72;5050915;28;20107;-73
2021/03/02 06:28:12;;;;;;;65.07;33.58;;;;;;;15.39;41.30;102783.59;5051841;28;20028;-73
2021/03/02 06:30:38;;;;;;;69.85;33.63;;;;;;;15.37;41.26;102783.91;5052101;28;20029;-77
2021/03/02 06:33:04;;;;;;;58.85;31.58;;;;;;;15.36;41.42;102787.78;5052098;28;20025;-73
2021/03/02 06:35:42;;;;;;;90.15;34.55;;;;;;;15.40;41.30;102793.50;5051996;28;20378;-73
2021/03/02 06:38:08;;;;;;;126.15;40.67;;;;;;;15.45;41.58;102791.50;5051798;28;20045;-73
2021/03/02 06:40:45;;;;;;;90.80;36.80;;;;;;;15.48;41.65;102792.84;5051918;28;20036;-73
2021/03/02 06:43:35;;;;;;;95.72;35.00;;;;;;;15.37;41.92;102796.88;5054297;28;20025;-73
2021/03/02 06:46:09;;;;;;;124.60;39.30;;;;;;;15.44;42.01;102795.38;5055575;28;20071;-73
2021/03/02 06:48:57;;;;;;;131.13;41.42;;;;;;;15.49;42.03;102800.84;5054578;28;20032;-72
2021/03/02 06:51:34;;;;;;;132.52;41.28;;;;;;;15.51;41.72;102795.03;5054551;28;20123;-76
2021/03/02 06:54:05;;;;;;;228.27;51.05;;;;;;;15.57;41.67;102806.78;5051416;28;20033;-72
2021/03/02 06:56:30;;;;;;;111.45;37.83;;;;;;;15.55;41.82;102809.81;5055749;28;20052;-72
2021/03/02 06:59:15;;;;;;;107.57;37.70;;;;;;;15.59;42.04;102802.63;5055668;28;20110;-71
2021/03/02 07:01:47;;;;;;;391.33;67.65;;;;;;;15.67;41.78;102803.91;5055538;28;20033;-72
2021/03/02 07:04:14;;;;;;;189.38;44.47;;;;;;;15.61;42.01;102807.81;5055872;28;20104;-73
2021/03/02 07:06:52;;;;;;;101.03;37.63;;;;;;;15.60;42.43;102807.00;5055459;28;20041;-78
2021/03/02 07:09:30;;;;;;;102.72;36.95;;;;;;;15.63;42.42;102822.16;5054116;28;20033;-72
2021/03/02 07:12:08;;;;;;;74.97;35.42;;;;;;;15.76;41.98;102811.22;5055528;28;20110;-74
2021/03/02 07:14:46;;;;;;;92.78;38.92;;;;;;;15.78;42.07;102810.91;5054182;28;20037;-73
2021/03/02 07:17:18;;;;;;;84.07;35.45;;;;;;;15.69;42.53;102807.19;5055269;28;20021;-72
2021/03/02 07:19:49;;;;;;;63.35;33.80;;;;;;;15.75;42.57;102814.28;5055353;28;20024;-73
2021/03/02 07:22:20;;;;;;;71.63;33.35;;;;;;;15.84;42.41;102820.75;5055166;28;20025;-72
2021/03/02 07:25:12;;;;;;;73.55;35.97;;;;;;;15.84;42.60;102823.50;5054305;28;20483;-78
2021/03/02 07:27:41;;;;;;;66.97;33.75;;;;;;;15.94;42.61;102822.53;5052541;28;20036;-74
2021/03/02 07:30:11;;;;;;;63.30;32.33;;;;;;;15.85;42.66;102818.81;5055012;28;20025;-74
2021/03/02 07:32:38;;;;;;;;;;;;;;;15.83;43.08;102819.13;5054189;28;20387;-71
2021/03/02 07:35:05;;;;;;;63.67;31.92;;;;;;;15.84;42.92;102828.19;5041190;28;19952;-74
2021/03/02 07:37:30;;;;;;;68.97;32.53;;;;;;;15.91;42.58;102832.22;5036517;28;20025;-71
2021/03/02 07:40:03;;;;;;;72.85;35.92;;;;;;;16.01;42.58;102825.72;5037905;28;21696;-72
2021/03/02 07:42:29;;;;;;;84.18;35.95;;;;;;;15.97;42.54;102827.47;5038155;28;20036;-73
2021/03/02 07:45:28;;;;;;;75.07;35.70;;;;;;;16.08;42.42;102835.25;5036784;28;20029;-71
2021/03/02 07:47:58;;;;;;;71.25;35.10;;;;;;;16.19;42.37;102841.44;5030584;28;20499;-74
2021/03/02 07:50:24;;;;;;;69.03;35.13;;;;;;;16.07;42.65;102838.31;5036996;28;20082;-73
2021/03/02 07:53:21;;;;;;;71.78;33.10;;;;;;;16.00;43.05;102830.44;5037785;28;20119;-78
2021/03/02 07:55:48;;;;;;;66.70;33.22;;;;;;;16.07;42.80;102832.81;5036379;28;20037;-72
2021/03/02 07:58:18;;;;;;;63.35;33.30;;;;;;;16.16;42.55;102839.28;5037412;28;20063;-76
2021/03/02 08:00:44;;;;;;;;;;;;;;;16.14;43.20;102837.94;5037694;28;20056;-72
2021/03/02 08:03:24;;;;;;;65.22;31.00;;;;;;;16.24;42.82;102841.34;5035901;28;19956;-72
2021/03/02 08:05:55;;;;;;;57.20;29.88;;;;;;;16.28;42.74;102841.59;5036651;28;20033;-72
2021/03/02 08:08:23;;;;;;;62.47;34.20;;;;;;;16.28;42.80;102847.09;5038207;28;20116;-73
2021/03/02 08:10:53;;;;;;;60.35;33.15;;;;;;;16.22;43.27;102851.06;5037680;28;20083;-75
2021/03/02 08:13:32;;;;;;;64.35;31.65;;;;;;;16.22;43.27;102849.13;5037142;28;20574;-73
2021/03/02 08:15:58;;;;;;;55.80;31.63;;;;;;;16.31;42.98;102857.53;5037677;28;20025;-76
2021/03/02 08:18:34;;;;;;;62.15;31.92;;;;;;;16.24;43.25;102857.09;5035611;28;20024;-78
2021/03/02 08:21:19;;;;;;;59.97;32.33;;;;;;;16.21;43.71;102858.50;5037383;28;20078;-72
2021/03/02 08:23:51;;;;;;;68.60;33.83;;;;;;;16.27;43.31;102859.25;5036015;28;20395;-73
2021/03/02 08:26:24;;;;;;;68.05;34.47;;;;;;;16.14;44.02;102860.81;5037261;28;20044;-72
2021/03/02 08:29:10;;;;;;;61.65;33.42;;;;;;;16.30;43.58;102858.66;5040659;28;20024;-74
2021/03/02 08:31:37;;;;;;;57.40;33.60;;;;;;;16.44;43.31;102861.47;5036317;28;20120;-74
2021/03/02 08:34:04;;;;;;;64.78;35.95;;;;;;;16.49;43.26;102878.75;5036894;28;20021;-74
2021/03/02 08:36:31;;;;;;;98.10;61.42;;;;;;;16.45;43.19;102877.72;5035836;28;20036;-77
2021/03/02 08:38:57;;;;;;;77.75;44.28;;;;;;;16.41;43.71;102884.97;5034531;28;20041;-85
2021/03/02 08:41:31;;;;;;;113.85;71.22;;;;;;;16.55;43.57;102885.00;5032565;28;20029;-78
2021/03/02 08:43:57;;;;;;;72.97;43.55;;;;;;;16.32;43.96;102872.94;5033698;28;20614;-77
2021/03/02 08:46:28;;;;;;;72.63;44.75;;;;;;;16.46;43.66;102884.88;5036573;28;20552;-77
2021/03/02 08:48:54;;;;;;;70.50;44.92;;;;;;;16.47;43.77;102874.66;5036541;28;20033;-80
2021/03/02 08:51:21;;;;;;;74.25;42.22;;;;;;;16.36;43.68;102872.06;5036676;28;20140;-78
2021/03/02 08:53:49;;;;;;;63.53;41.05;;;;;;;16.58;43.28;102863.16;5046471;28;20025;-76
2021/03/02 08:56:25;;;;;;;56.47;40.10;;;;;;;16.38;43.06;102871.75;5051617;28;20058;-77
2021/03/02 08:58:53;;;;;;;65.13;40.58;;;;;;;16.38;43.56;102877.28;5053349;28;20096;-84
2021/03/02 09:01:22;;;;;;;61.92;41.00;;;;;;;16.28;43.35;102872.75;5050423;28;20021;-78
2021/03/02 09:03:48;;;;;;;62.33;40.60;;;;;;;16.40;43.61;102880.56;5052954;28;20032;-80
2021/03/02 09:06:24;;;;;;;66.60;38.10;;;;;;;16.42;43.16;102883.03;5051412;28;20059;-77
2021/03/02 09:08:58;;;;;;;59.92;41.15;;;;;;;16.51;42.83;102879.28;5048900;28;20446;-78
2021/03/02 09:11:36;;;;;;;57.35;38.38;;;;;;;16.41;43.02;102875.88;5046497;28;20147;-76
2021/03/02 09:14:05;;;;;;;60.47;37.58;;;;;;;16.31;43.12;102874.91;5050016;28;20021;-76
2021/03/02 09:16:38;;;;;;;55.30;38.75;;;;;;;16.42;43.16;102878.31;5052818;28;20025;-76
2021/03/02 09:19:26;;;;;;;68.65;41.75;;;;;;;16.21;43.35;102885.28;5050546;28;20056;-76
2021/03/02 09:22:04;;;;;;;58.00;40.13;;;;;;;16.34;43.08;102892.81;5051661;28;20029;-79
2021/03/02 09:24:56;;;;;;;62.95;42.97;;;;;;;16.38;43.11;102888.31;5050204;28;20057;-76
2021/03/02 09:27:32;;;;;;;62.92;42.53;;;;;;;16.35;43.21;102883.41;5049661;28;20032;-79
2021/03/02 09:29:58;;;;;;;59.20;41.75;;;;;;;16.64;42.58;102884.03;5052652;28;20056;-76
2021/03/02 09:32:32;;;;;;;61.35;40.38;;;;;;;16.61;42.71;102881.03;5050911;28;20029;-76
2021/03/02 09:35:00;;;;;;;61.88;40.40;;;;;;;16.67;42.65;102879.81;5052469;28;20033;-76
2021/03/02 09:37:26;;;;;;;61.72;39.47;;;;;;;16.61;42.82;102879.09;5049096;28;20040;-77
2021/03/02 09:40:06;;;;;;;61.42;38.50;;;;;;;16.80;42.50;102869.97;5052394;28;20048;-76
2021/03/02 09:42:37;;;;;;;66.20;42.97;;;;;;;16.91;42.53;102879.69;5050722;28;20029;-75
2021/03/02 09:45:17;;;;;;;62.97;39.05;;;;;;;16.77;42.68;102881.63;5051645;28;20036;-76
2021/03/02 09:47:44;;;;;;;68.72;42.75;;;;;;;16.69;42.72;102885.88;5052451;28;20033;-78
2021/03/02 09:50:39;;;;;;;57.22;38.03;;;;;;;16.54;43.01;102886.13;5049869;28;20031;-80
2021/03/02 09:53:15;;;;;;;63.10;40.40;;;;;;;16.72;42.63;102881.72;5045116;28;20116;-81
2021/03/02 09:55:42;;;;;;;62.15;41.55;;;;;;;16.84;42.43;102891.13;5052112;28;20020;-81
2021/03/02 09:58:14;;;;;;;65.70;40.33;;;;;;;16.61;42.78;102890.13;5050511;28;20386;-82
2021/03/02 10:00:48;;;;;;;58.25;39.22;;;;;;;16.94;42.39;102895.69;5050869;28;20036;-78
2021/03/02 10:03:15;;;;;;;61.72;39.70;;;;;;;16.91;42.20;102902.63;5052315;28;20040;-77
2021/03/02 10:05:46;;;;;;;60.33;38.75;;;;;;;16.78;42.24;102903.41;5052059;28;20035;-77
2021/03/02 10:08:42;;;;;;;59.67;39.08;;;;;;;16.70;42.62;102911.56;5049164;28;20043;-76
2021/03/02 10:11:11;;;;;;;57.58;38.05;;;;;;;16.90;42.17;102906.50;5045724;28;20040;-77
2021/03/02 10:13:37;;;;;;;53.28;38.83;;;;;;;16.86;42.06;102902.72;5048742;28;20112;-76
2021/03/02 10:16:24;;;;;;;62.65;39.35;;;;;;;16.94;41.84;102905.91;5050570;28;20032;-77
2021/03/02 10:19:00;;;;;;;62.83;39.63;;;;;;;16.97;41.81;102908.06;5054907;28;20029;-76
2021/03/02 10:21:28;;;;;;;65.40;40.83;;;;;;;17.05;41.83;102905.41;5056215;28;20029;-76
2021/03/02 10:23:59;;;;;;;62.50;41.30;;;;;;;16.91;42.02;102907.31;5053932;28;20033;-75
2021/03/02 10:26:28;;;;;;;60.33;38.80;;;;;;;17.08;41.79;102907.56;5053515;28;20471;-80
2021/03/02 10:28:55;;;;;;;61.60;40.53;;;;;;;17.15;41.64;102913.53;5056012;28;20029;-83
2021/03/02 10:31:21;;;;;;;54.05;36.38;;;;;;;17.27;41.56;102910.25;5055912;28;20029;-74
2021/03/02 10:33:48;;;;;;;55.47;39.05;;;;;;;17.29;41.36;102909.94;5055747;28;20025;-74
2021/03/02 10:36:34;;;;;;;58.88;38.03;;;;;;;17.24;41.58;102907.28;5055274;28;20091;-75
2021/03/02 10:39:03;;;;;;;52.95;38.00;;;;;;;17.37;41.15;102906.44;5050225;28;20041;-74
2021/03/02 10:41:29;;;;;;;58.83;38.33;;;;;;;17.27;41.55;102909.44;5055581;28;20033;-74
2021/03/02 10:43:56;;;;;;;59.90;39.30;;;;;;;17.35;41.44;102911.47;5048328;28;20200;-74
2021/03/02 10:46:27;;;;;;;64.53;40.67;;;;;;;17.49;41.15;102912.31;5051925;28;20033;-75
2021/03/02 10:48:54;;;;;;;66.05;41.90;;;;;;;17.55;41.13;102908.31;5054336;28;20032;-87
2021/03/02 10:51:20;;;;;;;61.42;41.05;;;;;;;17.63;41.07;102909.53;5056649;28;20033;-86
2021/03/02 10:53:46;;;;;;;58.35;40.90;;;;;;;17.45;41.00;102908.50;5055109;28;20040;-87
2021/03/02 10:56:12;;;;;;;57.75;39.47;;;;;;;17.43;41.07;102908.00;5056299;28;20487;-87
2021/03/02 10:58:38;;;;;;;63.75;39.50;;;;;;;17.62;40.80;102908.72;5052123;28;20029;-80
2021/03/02 11:01:04;;;;;;;60.80;40.13;;;;;;;17.57;40.97;102908.81;5036481;28;20032;-77
2021/03/02 11:03:30;;;;;;;69.10;41.35;;;;;;;17.59;41.15;102912.09;5038897;28;20087;-78
2021/03/02 11:05:56;;;;;;;61.78;39.35;;;;;;;17.33;41.26;102902.69;5054948;28;20037;-82
2021/03/02 11:08:21;;;;;;;55.22;38.03;;;;;;;17.33;41.28;102910.97;5053040;28;20025;-81
2021/03/02 11:10:48;;;;;;;76.65;39.15;;;;;;;17.42;41.35;102907.19;5055205;28;20044;-81
2021/03/02 11:13:14;;;;;;;58.75;39.83;;;;;;;17.31;41.25;102910.47;5055110;28;20095;-81
2021/03/02 11:15:40;;;;;;;54.80;41.83;;;;;;;17.28;41.13;102908.28;5055225;28;20036;-76
2021/03/02 11:18:09;;;;;;;62.72;38.30;;;;;;;17.25;41.48;102906.97;5054494;28;20036;-81
2021/03/02 11:20:36;;;;;;;55.80;36.72;;;;;;;17.19;41.40;102909.00;5054934;28;20029;-82